createdAt,value
2023-02-17T00:03:16.782Z,30.48
2023-02-17T00:08:19.736Z,37.97
2023-02-17T00:13:23.964Z,33.22
2023-02-17T00:18:26.783Z,37.40
2023-02-17T00:23:29.460Z,35.28
2023-02-17T00:28:36.528Z,34.97
2023-02-17T00:33:39.564Z,30.77
2023-02-17T00:38:42.291Z,40.60
2023-02-17T00:43:46.858Z,41.08
2023-02-17T00:48:51.184Z,32.97
2023-02-17T00:53:54.000Z,31.80
2023-02-17T00:58:58.203Z,27.67
2023-02-17T01:04:01.331Z,32.53
2023-02-17T01:09:05.529Z,41.00
2023-02-17T01:14:09.636Z,29.35
2023-02-17T01:19:15.171Z,33.47
2023-02-17T01:24:17.969Z,24.67
2023-02-17T01:29:22.171Z,23.52
2023-02-17T01:34:24.978Z,34.05
2023-02-17T01:39:27.841Z,35.20
2023-02-17T01:44:34.246Z,22.40
2023-02-17T01:49:39.162Z,31.47
2023-02-17T01:54:45.495Z,40.55
2023-02-17T01:59:50.214Z,22.33
2023-02-17T02:04:54.752Z,24.75
2023-02-17T02:09:59.122Z,25.27
2023-02-17T02:15:08.742Z,24.45
2023-02-17T02:20:41.136Z,24.85
2023-02-17T02:26:16.926Z,20.00
2023-02-17T02:31:45.293Z,19.48
2023-02-17T02:36:56.671Z,26.00
2023-02-17T02:42:04.053Z,25.13
2023-02-17T02:47:28.475Z,22.08
2023-02-17T02:52:41.180Z,21.27
2023-02-17T02:57:53.629Z,21.70
2023-02-17T03:03:01.806Z,23.73
2023-02-17T03:08:12.271Z,24.35
2023-02-17T03:13:15.334Z,24.77
2023-02-17T03:18:18.230Z,16.50
2023-02-17T03:23:22.758Z,23.38
2023-02-17T03:28:25.753Z,19.38
2023-02-17T03:33:28.805Z,20.45
2023-02-17T03:38:33.245Z,20.55
2023-02-17T03:43:36.271Z,18.02
2023-02-17T03:48:39.451Z,17.15
2023-02-17T03:53:44.473Z,17.83
2023-02-17T03:58:47.458Z,23.27
2023-02-17T04:03:50.345Z,15.50
2023-02-17T04:08:54.671Z,15.52
2023-02-17T04:27:22.341Z,15.68
2023-02-17T04:32:25.237Z,19.90
2023-02-17T04:37:27.952Z,11.07
2023-02-17T04:42:32.162Z,12.27
2023-02-17T04:47:35.574Z,15.45
2023-02-17T04:52:39.131Z,12.57
2023-02-17T04:57:43.222Z,8.98
2023-02-17T05:02:45.921Z,7.95
2023-02-17T05:07:49.222Z,10.48
2023-02-17T05:12:53.971Z,8.02
2023-02-17T05:17:56.711Z,7.40
2023-02-17T05:22:59.545Z,7.90
2023-02-17T05:28:03.904Z,10.70
2023-02-17T05:33:06.691Z,9.23
2023-02-17T05:38:09.416Z,7.55
2023-02-17T05:43:13.712Z,7.60
2023-02-17T05:48:16.521Z,7.18
2023-02-17T05:53:19.788Z,9.95
2023-02-17T05:58:23.983Z,13.93
2023-02-17T06:03:26.824Z,10.82
2023-02-17T06:08:30.114Z,10.75
2023-02-17T06:13:34.381Z,11.30
2023-02-17T06:18:37.174Z,10.57
2023-02-17T06:23:40.056Z,15.57
2023-02-17T06:28:44.937Z,13.45
2023-02-17T06:33:48.204Z,14.57
2023-02-17T06:38:51.319Z,15.98
2023-02-17T06:43:55.448Z,14.73
2023-02-17T06:49:00.098Z,12.68
2023-02-17T06:54:03.428Z,15.73
2023-02-17T06:59:07.701Z,15.00
2023-02-17T07:04:10.965Z,18.25
2023-02-17T07:09:13.985Z,15.38
2023-02-17T07:14:18.183Z,12.10
2023-02-17T07:19:21.110Z,14.93
2023-02-17T07:24:23.947Z,15.18
2023-02-17T07:29:28.847Z,12.32
2023-02-17T07:34:31.935Z,13.65
2023-02-17T07:39:34.944Z,14.20
2023-02-17T07:44:41.445Z,15.88
2023-02-17T07:49:44.184Z,14.32
2023-02-17T07:54:47.056Z,13.75
2023-02-17T07:59:51.266Z,14.15
2023-02-17T08:04:54.062Z,11.60
2023-02-17T08:10:15.613Z,13.05
2023-02-17T08:15:19.784Z,11.90
2023-02-17T08:20:22.638Z,13.27
2023-02-17T08:25:25.532Z,11.13
2023-02-17T08:30:29.958Z,13.25
2023-02-17T08:35:33.198Z,12.90
2023-02-17T08:40:36.000Z,13.00
2023-02-17T08:45:42.593Z,11.40
2023-02-17T08:50:48.646Z,12.05
2023-02-17T08:55:51.700Z,12.40
2023-02-17T09:00:55.998Z,10.15
2023-02-17T09:05:59.279Z,10.60
2023-02-17T09:11:03.315Z,15.23
2023-02-17T09:16:08.151Z,10.30
2023-02-17T09:21:13.378Z,9.73
2023-02-17T09:26:17.759Z,13.05
2023-02-17T09:31:25.051Z,8.88
2023-02-17T09:36:30.646Z,8.02
2023-02-17T09:41:40.159Z,10.88
2023-02-17T09:47:01.021Z,8.23
2023-02-17T09:52:13.046Z,10.63
2023-02-17T09:57:20.687Z,26.85
2023-02-17T10:02:33.198Z,10.27
2023-02-17T10:07:40.797Z,9.02
2023-02-17T10:12:48.717Z,9.52
2023-02-17T10:18:00.506Z,9.68
2023-02-17T10:23:09.199Z,7.07
2023-02-17T10:28:19.831Z,9.13
2023-02-17T10:33:30.440Z,5.15
2023-02-17T10:38:47.200Z,9.77
2023-02-17T10:43:51.297Z,9.45
2023-02-17T10:48:57.073Z,7.35
2023-02-17T10:54:04.321Z,12.90
2023-02-17T10:59:13.655Z,8.10
2023-02-17T11:04:18.633Z,5.72
2023-02-17T11:09:28.590Z,5.85
2023-02-17T11:14:34.208Z,7.43
2023-02-17T11:19:38.811Z,6.45
2023-02-17T11:24:41.855Z,6.82
2023-02-17T11:29:44.692Z,8.13
2023-02-17T11:34:58.135Z,3.63
2023-02-17T11:40:01.298Z,4.28
2023-02-17T11:45:17.455Z,4.00
2023-02-17T11:50:40.724Z,3.28
2023-02-17T11:55:55.330Z,4.70
2023-02-17T12:01:11.189Z,3.67
2023-02-17T12:06:22.702Z,7.63
2023-02-17T12:11:46.565Z,4.80
2023-02-17T12:16:56.464Z,3.72
2023-02-17T12:22:11.077Z,3.38
2023-02-17T12:27:28.298Z,2.42
2023-02-17T12:32:46.721Z,1.83
2023-02-17T12:37:55.329Z,4.95
2023-02-17T12:43:02.640Z,1.77
2023-02-17T12:48:11.017Z,3.78
2023-02-17T12:53:25.196Z,3.30
2023-02-17T12:58:30.297Z,2.50
2023-02-17T13:03:34.189Z,2.38
2023-02-17T13:08:43.500Z,2.33
2023-02-17T13:13:46.382Z,2.75
2023-02-17T13:18:51.280Z,4.45
2023-02-17T13:24:02.450Z,2.38
2023-02-17T13:29:37.285Z,1.42
2023-02-17T13:34:43.655Z,2.85
2023-02-17T13:39:49.047Z,4.47
2023-02-17T13:44:52.383Z,1.88
2023-02-17T13:49:57.146Z,1.95
2023-02-17T13:55:03.719Z,1.75
2023-02-17T14:00:10.089Z,11.73
2023-02-17T14:05:21.153Z,5.05
2023-02-17T14:10:27.470Z,1.63
2023-02-17T14:15:31.183Z,1.00
2023-02-17T14:20:37.396Z,2.55
2023-02-17T14:25:44.897Z,2.85
2023-02-17T14:30:48.318Z,1.77
2023-02-17T14:35:53.503Z,5.63
2023-02-17T14:40:57.994Z,2.53
2023-02-17T14:46:00.852Z,2.05
2023-02-17T14:51:03.652Z,1.33
2023-02-17T14:56:16.076Z,1.67
2023-02-17T15:01:21.074Z,1.17
2023-02-17T15:06:28.893Z,2.15
2023-02-17T15:11:37.496Z,1.85
2023-02-17T15:16:40.309Z,1.63
2023-02-17T15:21:46.957Z,2.13
2023-02-17T15:26:51.140Z,3.28
2023-02-17T15:31:55.670Z,1.92
2023-02-17T15:36:59.354Z,1.77
2023-02-17T15:42:08.111Z,3.03
2023-02-17T15:47:17.057Z,3.85
2023-02-17T15:52:19.865Z,2.60
2023-02-17T15:57:25.764Z,11.90
2023-02-17T16:02:28.652Z,4.40
2023-02-17T16:07:31.397Z,2.38
2023-02-17T16:12:35.656Z,2.42
2023-02-17T16:17:38.470Z,4.20
2023-02-17T16:22:41.378Z,1.60
2023-02-17T16:27:48.153Z,2.45
2023-02-17T16:32:52.382Z,6.17
2023-02-17T16:37:58.483Z,4.90
2023-02-17T16:43:02.725Z,3.80
2023-02-17T16:48:08.893Z,5.95
2023-02-17T16:53:14.032Z,5.33
2023-02-17T16:58:20.526Z,9.00
2023-02-17T17:03:23.542Z,7.55
2023-02-17T17:08:26.323Z,5.90
2023-02-17T17:13:30.440Z,8.85
2023-02-17T17:18:33.213Z,6.50
2023-02-17T17:23:36.023Z,5.70
2023-02-17T17:28:40.589Z,4.65
2023-02-17T17:33:44.806Z,7.03
2023-02-17T17:38:47.523Z,8.05
2023-02-17T17:43:52.280Z,7.35
2023-02-17T17:48:55.819Z,5.47
2023-02-17T17:53:59.173Z,12.45
2023-02-17T17:59:04.669Z,11.85
2023-02-17T18:04:08.861Z,7.10
2023-02-17T18:09:30.324Z,10.35
2023-02-17T18:14:38.082Z,10.55
2023-02-17T18:19:41.572Z,13.02
2023-02-17T18:24:47.524Z,12.15
2023-02-17T18:29:55.459Z,11.52
2023-02-17T18:34:58.469Z,12.65
2023-02-17T18:40:03.466Z,12.35
2023-02-17T18:45:09.451Z,10.07
2023-02-17T18:50:14.431Z,12.77
2023-02-17T18:55:17.160Z,11.25
2023-02-17T19:00:21.828Z,9.63
2023-02-17T19:05:28.592Z,11.13
2023-02-17T19:10:31.324Z,6.80
2023-02-17T19:15:35.528Z,8.10
2023-02-17T19:20:38.314Z,7.53
2023-02-17T19:25:41.067Z,6.72
2023-02-17T19:30:45.271Z,7.40
2023-02-17T19:35:48.094Z,11.73
2023-02-17T19:40:50.926Z,7.63
2023-02-17T19:45:55.125Z,12.52
2023-02-17T19:51:01.400Z,9.25
2023-02-17T19:56:11.865Z,8.87
2023-02-17T20:01:18.986Z,7.95
2023-02-17T20:06:23.460Z,6.53
2023-02-17T20:11:27.238Z,4.60
2023-02-17T20:16:31.733Z,8.55
2023-02-17T20:21:36.286Z,3.47
2023-02-17T20:26:41.155Z,7.65
2023-02-17T20:31:45.681Z,3.65
2023-02-17T20:36:48.505Z,4.13
2023-02-17T20:41:51.427Z,6.03
2023-02-17T20:46:56.598Z,3.00
2023-02-17T20:51:59.433Z,6.03
2023-02-17T20:57:02.304Z,6.60
2023-02-17T21:02:06.524Z,5.47
2023-02-17T21:07:10.731Z,6.43
2023-02-17T21:12:13.559Z,7.15
2023-02-17T21:17:18.607Z,4.75
2023-02-17T21:22:21.404Z,5.63
2023-02-17T21:27:24.298Z,32.90
2023-02-17T21:32:28.601Z,23.60
2023-02-17T21:37:31.736Z,11.43
2023-02-17T21:42:54.734Z,6.88
2023-02-17T21:47:58.869Z,10.52
2023-02-17T21:53:01.729Z,6.88
2023-02-17T21:58:04.594Z,10.10
2023-02-17T22:03:09.116Z,6.72
2023-02-17T22:08:11.916Z,9.52
2023-02-17T22:13:14.692Z,7.60
2023-02-17T22:18:19.082Z,6.53
2023-02-17T22:23:21.938Z,6.65
2023-02-17T22:28:24.672Z,7.97
2023-02-17T22:33:28.783Z,6.38
2023-02-17T22:38:31.801Z,7.38
2023-02-17T22:43:36.876Z,7.38
2023-02-17T22:48:41.117Z,4.88
2023-02-17T22:53:44.053Z,4.00
2023-02-17T22:58:46.832Z,7.63
2023-02-17T23:03:54.437Z,3.08
2023-02-17T23:08:58.463Z,2.20
2023-02-17T23:14:01.484Z,2.13
2023-02-17T23:19:08.438Z,2.10
2023-02-17T23:24:11.334Z,1.05
2023-02-17T23:29:14.506Z,3.08
2023-02-17T23:34:18.583Z,1.45
2023-02-17T23:39:21.386Z,1.20
2023-02-17T23:44:24.123Z,2.08
2023-02-17T23:49:28.258Z,2.38
2023-02-17T23:54:31.023Z,0.98
2023-02-17T23:59:34.441Z,2.25
